sensor_id;sensor_type;location;lat;lon;timestamp;pressure;altitude;pressure_sealevel;temperature;humidity
48527;BME280;34317;51.660;5.824;2023-03-26T00:01:31;100660.84;;;12.30;58.70
48527;BME280;34317;51.660;5.824;2023-03-26T00:04:04;100664.25;;;12.32;58.85
48527;BME280;34317;51.660;5.824;2023-03-26T00:06:34;100662.38;;;12.34;58.68
48527;BME280;34317;51.660;5.824;2023-03-26T00:09:04;100664.09;;;12.35;58.83
48527;BME280;34317;51.660;5.824;2023-03-26T00:11:32;100657.75;;;12.37;58.65
48527;BME280;34317;51.660;5.824;2023-03-26T00:13:59;100667.38;;;12.40;58.76
48527;BME280;34317;51.660;5.824;2023-03-26T00:16:28;100652.28;;;12.40;58.73
48527;BME280;34317;51.660;5.824;2023-03-26T00:18:57;100649.56;;;12.42;58.69
48527;BME280;34317;51.660;5.824;2023-03-26T00:21:27;100649.34;;;12.45;58.86
48527;BME280;34317;51.660;5.824;2023-03-26T00:23:56;100647.50;;;12.47;58.91
48527;BME280;34317;51.660;5.824;2023-03-26T00:26:26;100653.66;;;12.48;58.94
48527;BME280;34317;51.660;5.824;2023-03-26T00:28:56;100645.63;;;12.49;58.98
48527;BME280;34317;51.660;5.824;2023-03-26T00:31:24;100642.00;;;12.50;58.82
48527;BME280;34317;51.660;5.824;2023-03-26T00:33:52;100643.72;;;12.51;59.00
48527;BME280;34317;51.660;5.824;2023-03-26T00:36:23;100648.06;;;12.52;59.00
48527;BME280;34317;51.660;5.824;2023-03-26T00:38:52;100645.41;;;12.52;58.90
48527;BME280;34317;51.660;5.824;2023-03-26T00:41:24;100643.53;;;12.54;59.06
48527;BME280;34317;51.660;5.824;2023-03-26T00:43:54;100637.38;;;12.54;59.01
48527;BME280;34317;51.660;5.824;2023-03-26T00:46:23;100638.22;;;12.54;59.03
48527;BME280;34317;51.660;5.824;2023-03-26T00:48:51;100631.22;;;12.53;58.95
48527;BME280;34317;51.660;5.824;2023-03-26T00:51:19;100622.28;;;12.54;58.92
48527;BME280;34317;51.660;5.824;2023-03-26T00:53:48;100625.81;;;12.55;58.98
48527;BME280;34317;51.660;5.824;2023-03-26T00:56:16;100623.16;;;12.55;59.14
48527;BME280;34317;51.660;5.824;2023-03-26T00:58:44;100622.28;;;12.54;58.99
48527;BME280;34317;51.660;5.824;2023-03-26T01:01:16;100616.97;;;12.54;59.01
48527;BME280;34317;51.660;5.824;2023-03-26T01:03:45;100616.97;;;12.54;58.84
48527;BME280;34317;51.660;5.824;2023-03-26T01:06:31;100616.13;;;12.54;58.77
48527;BME280;34317;51.660;5.824;2023-03-26T01:09:11;100615.28;;;12.53;58.72
48527;BME280;34317;51.660;5.824;2023-03-26T01:11:40;100615.19;;;12.55;58.72
48527;BME280;34317;51.660;5.824;2023-03-26T01:14:11;100604.66;;;12.53;58.86
48527;BME280;34317;51.660;5.824;2023-03-26T01:16:42;100609.97;;;12.53;58.77
48527;BME280;34317;51.660;5.824;2023-03-26T01:21:43;100593.34;;;12.50;58.50
48527;BME280;34317;51.660;5.824;2023-03-26T01:24:13;100592.66;;;12.46;58.63
48527;BME280;34317;51.660;5.824;2023-03-26T01:27:01;100582.19;;;12.43;58.52
48527;BME280;34317;51.660;5.824;2023-03-26T01:38:08;100564.41;;;12.29;58.58
48527;BME280;34317;51.660;5.824;2023-03-26T01:40:54;100556.50;;;12.27;58.57
48527;BME280;34317;51.660;5.824;2023-03-26T01:46:12;100554.06;;;12.24;58.97
48527;BME280;34317;51.660;5.824;2023-03-26T01:48:42;100543.50;;;12.23;58.48
48527;BME280;34317;51.660;5.824;2023-03-26T01:51:10;100540.00;;;12.22;58.69
48527;BME280;34317;51.660;5.824;2023-03-26T01:53:45;100537.50;;;12.19;58.59
48527;BME280;34317;51.660;5.824;2023-03-26T01:56:25;100539.41;;;12.17;58.49
48527;BME280;34317;51.660;5.824;2023-03-26T01:59:05;100534.25;;;12.14;58.62
48527;BME280;34317;51.660;5.824;2023-03-26T02:04:20;100536.31;;;12.09;58.50
48527;BME280;34317;51.660;5.824;2023-03-26T02:07:06;100527.56;;;12.07;58.51
48527;BME280;34317;51.660;5.824;2023-03-26T02:09:41;100529.66;;;12.02;58.46
48527;BME280;34317;51.660;5.824;2023-03-26T02:12:15;100523.66;;;11.98;58.33
48527;BME280;34317;51.660;5.824;2023-03-26T02:14:44;100522.97;;;11.95;58.33
48527;BME280;34317;51.660;5.824;2023-03-26T02:17:11;100514.41;;;11.90;58.52
48527;BME280;34317;51.660;5.824;2023-03-26T02:19:38;100514.53;;;11.86;58.50
48527;BME280;34317;51.660;5.824;2023-03-26T02:22:10;100513.00;;;11.82;58.73
48527;BME280;34317;51.660;5.824;2023-03-26T02:24:43;100513.19;;;11.79;58.53
48527;BME280;34317;51.660;5.824;2023-03-26T02:27:11;100510.78;;;11.75;58.56
48527;BME280;34317;51.660;5.824;2023-03-26T02:29:39;100503.06;;;11.70;58.71
48527;BME280;34317;51.660;5.824;2023-03-26T02:32:10;100503.25;;;11.67;59.31
48527;BME280;34317;51.660;5.824;2023-03-26T02:34:41;100498.09;;;11.64;58.88
48527;BME280;34317;51.660;5.824;2023-03-26T02:37:09;100499.97;;;11.62;58.75
48527;BME280;34317;51.660;5.824;2023-03-26T02:39:39;100496.56;;;11.60;58.81
48527;BME280;34317;51.660;5.824;2023-03-26T02:42:13;100483.28;;;11.60;58.83
48527;BME280;34317;51.660;5.824;2023-03-26T02:44:46;100480.63;;;11.60;59.12
48527;BME280;34317;51.660;5.824;2023-03-26T02:47:19;100475.34;;;11.60;59.03
48527;BME280;34317;51.660;5.824;2023-03-26T02:49:52;100473.63;;;11.59;58.96
48527;BME280;34317;51.660;5.824;2023-03-26T02:52:43;100477.22;;;11.58;59.07
48527;BME280;34317;51.660;5.824;2023-03-26T02:55:11;100473.78;;;11.56;58.88
48527;BME280;34317;51.660;5.824;2023-03-26T02:57:40;100466.78;;;11.55;58.95
48527;BME280;34317;51.660;5.824;2023-03-26T03:00:16;100463.34;;;11.53;58.61
48527;BME280;34317;51.660;5.824;2023-03-26T03:02:44;100466.94;;;11.52;58.84
48527;BME280;34317;51.660;5.824;2023-03-26T03:05:20;100461.81;;;11.48;58.81
48527;BME280;34317;51.660;5.824;2023-03-26T03:07:54;100454.81;;;11.47;58.92
48527;BME280;34317;51.660;5.824;2023-03-26T03:10:26;100457.47;;;11.47;58.91
48527;BME280;34317;51.660;5.824;2023-03-26T03:13:13;100449.66;;;11.44;58.90
48527;BME280;34317;51.660;5.824;2023-03-26T03:15:40;100448.88;;;11.42;58.98
48527;BME280;34317;51.660;5.824;2023-03-26T03:18:08;100447.09;;;11.43;59.20
48527;BME280;34317;51.660;5.824;2023-03-26T03:20:35;100439.22;;;11.41;59.07
48527;BME280;34317;51.660;5.824;2023-03-26T03:23:03;100435.63;;;11.42;59.06
48527;BME280;34317;51.660;5.824;2023-03-26T03:25:30;100432.97;;;11.42;59.22
48527;BME280;34317;51.660;5.824;2023-03-26T03:27:59;100430.34;;;11.42;59.17
48527;BME280;34317;51.660;5.824;2023-03-26T03:30:26;100424.19;;;11.42;58.92
48527;BME280;34317;51.660;5.824;2023-03-26T03:32:56;100425.03;;;11.42;59.02
48527;BME280;34317;51.660;5.824;2023-03-26T03:35:25;100428.59;;;11.41;58.95
48527;BME280;34317;51.660;5.824;2023-03-26T03:37:57;100428.59;;;11.41;59.03
48527;BME280;34317;51.660;5.824;2023-03-26T03:40:25;100414.56;;;11.39;58.99
48527;BME280;34317;51.660;5.824;2023-03-26T03:42:53;100412.88;;;11.38;58.75
48527;BME280;34317;51.660;5.824;2023-03-26T03:45:30;100417.34;;;11.38;58.95
48527;BME280;34317;51.660;5.824;2023-03-26T03:48:11;100407.75;;;11.35;58.82
48527;BME280;34317;51.660;5.824;2023-03-26T03:50:41;100404.31;;;11.33;58.95
48527;BME280;34317;51.660;5.824;2023-03-26T03:53:24;100400.91;;;11.31;58.79
48527;BME280;34317;51.660;5.824;2023-03-26T03:55:58;100396.63;;;11.28;59.04
48527;BME280;34317;51.660;5.824;2023-03-26T03:58:47;100390.44;;;11.28;58.94
48527;BME280;34317;51.660;5.824;2023-03-26T04:01:23;100395.00;;;11.26;59.03
48527;BME280;34317;51.660;5.824;2023-03-26T04:03:59;100393.28;;;11.25;59.08
48527;BME280;34317;51.660;5.824;2023-03-26T04:06:40;100390.81;;;11.22;59.29
48527;BME280;34317;51.660;5.824;2023-03-26T04:09:09;100386.47;;;11.21;59.18
48527;BME280;34317;51.660;5.824;2023-03-26T04:11:37;100381.16;;;11.21;58.96
48527;BME280;34317;51.660;5.824;2023-03-26T04:14:18;100382.09;;;11.20;59.12
48527;BME280;34317;51.660;5.824;2023-03-26T04:16:56;100383.97;;;11.18;59.10
48527;BME280;34317;51.660;5.824;2023-03-26T04:19:24;100376.94;;;11.17;59.13
48527;BME280;34317;51.660;5.824;2023-03-26T04:21:53;100371.63;;;11.17;59.22
48527;BME280;34317;51.660;5.824;2023-03-26T04:24:21;100371.63;;;11.17;59.22
48527;BME280;34317;51.660;5.824;2023-03-26T04:27:14;100364.66;;;11.16;59.34
48527;BME280;34317;51.660;5.824;2023-03-26T04:29:45;100362.75;;;11.18;59.32
48527;BME280;34317;51.660;5.824;2023-03-26T04:32:24;100355.66;;;11.18;59.17
48527;BME280;34317;51.660;5.824;2023-03-26T04:34:56;100353.84;;;11.19;59.20
48527;BME280;34317;51.660;5.824;2023-03-26T04:37:32;100360.09;;;11.18;59.23
48527;BME280;34317;51.660;5.824;2023-03-26T04:40:19;100355.72;;;11.17;59.29
48527;BME280;34317;51.660;5.824;2023-03-26T04:43:04;100350.63;;;11.14;59.17
48527;BME280;34317;51.660;5.824;2023-03-26T04:45:52;100348.91;;;11.13;59.30
48527;BME280;34317;51.660;5.824;2023-03-26T04:48:23;100339.25;;;11.12;59.33
48527;BME280;34317;51.660;5.824;2023-03-26T04:50:51;100326.00;;;11.12;59.40
48527;BME280;34317;51.660;5.824;2023-03-26T04:53:20;100333.00;;;11.13;59.38
48527;BME280;34317;51.660;5.824;2023-03-26T04:56:00;100326.00;;;11.12;59.89
48527;BME280;34317;51.660;5.824;2023-03-26T04:58:49;100320.69;;;11.12;59.46
48527;BME280;34317;51.660;5.824;2023-03-26T05:01:18;100319.75;;;11.13;59.49
48527;BME280;34317;51.660;5.824;2023-03-26T05:03:45;100310.09;;;11.12;59.67
48527;BME280;34317;51.660;5.824;2023-03-26T05:06:14;100301.19;;;11.13;59.85
48527;BME280;34317;51.660;5.824;2023-03-26T05:08:43;100298.53;;;11.13;59.81
48527;BME280;34317;51.660;5.824;2023-03-26T05:11:19;100290.59;;;11.13;59.55
48527;BME280;34317;51.660;5.824;2023-03-26T05:13:46;100287.19;;;11.10;59.69
48527;BME280;34317;51.660;5.824;2023-03-26T05:16:13;100283.75;;;11.08;59.83
48527;BME280;34317;51.660;5.824;2023-03-26T05:18:47;100284.59;;;11.09;60.13
48527;BME280;34317;51.660;5.824;2023-03-26T05:21:14;100269.59;;;11.09;59.91
48527;BME280;34317;51.660;5.824;2023-03-26T05:23:42;100266.81;;;11.11;59.94
48527;BME280;34317;51.660;5.824;2023-03-26T05:26:16;100265.81;;;11.14;59.74
48527;BME280;34317;51.660;5.824;2023-03-26T05:28:43;100256.06;;;11.14;60.20
48527;BME280;34317;51.660;5.824;2023-03-26T05:31:19;100265.63;;;11.17;59.79
48527;BME280;34317;51.660;5.824;2023-03-26T05:33:49;100255.00;;;11.17;60.11
48527;BME280;34317;51.660;5.824;2023-03-26T05:36:17;100248.72;;;11.19;60.09
48527;BME280;34317;51.660;5.824;2023-03-26T05:39:08;100247.81;;;11.19;59.97
48527;BME280;34317;51.660;5.824;2023-03-26T05:42:07;100246.91;;;11.20;60.10
48527;BME280;34317;51.660;5.824;2023-03-26T05:44:49;100236.28;;;11.20;60.19
48527;BME280;34317;51.660;5.824;2023-03-26T05:47:23;100238.94;;;11.20;60.16
48527;BME280;34317;51.660;5.824;2023-03-26T05:49:50;100235.38;;;11.21;60.00
48527;BME280;34317;51.660;5.824;2023-03-26T05:52:17;100233.66;;;11.20;60.34
48527;BME280;34317;51.660;5.824;2023-03-26T05:55:13;100226.81;;;11.16;59.92
48527;BME280;34317;51.660;5.824;2023-03-26T05:58:00;100218.09;;;11.14;59.97
48527;BME280;34317;51.660;5.824;2023-03-26T06:01:05;100227.19;;;11.09;60.13
48527;BME280;34317;51.660;5.824;2023-03-26T06:04:00;100225.47;;;11.08;60.30
48527;BME280;34317;51.660;5.824;2023-03-26T06:06:35;100216.56;;;11.09;60.36
48527;BME280;34317;51.660;5.824;2023-03-26T06:09:02;100212.13;;;11.10;60.26
48527;BME280;34317;51.660;5.824;2023-03-26T06:11:30;100218.28;;;11.10;60.57
48527;BME280;34317;51.660;5.824;2023-03-26T06:13:59;100211.28;;;11.09;60.66
48527;BME280;34317;51.660;5.824;2023-03-26T06:16:27;100203.41;;;11.08;60.54
48527;BME280;34317;51.660;5.824;2023-03-26T06:19:32;100212.22;;;11.08;60.66
48527;BME280;34317;51.660;5.824;2023-03-26T06:22:09;100203.22;;;11.11;60.58
48527;BME280;34317;51.660;5.824;2023-03-26T06:25:08;100202.19;;;11.14;60.72
48527;BME280;34317;51.660;5.824;2023-03-26T06:27:50;100188.00;;;11.15;60.62
48527;BME280;34317;51.660;5.824;2023-03-26T06:30:38;100193.13;;;11.18;60.81
48527;BME280;34317;51.660;5.824;2023-03-26T06:33:15;100194.66;;;11.22;60.68
48527;BME280;34317;51.660;5.824;2023-03-26T06:35:46;100190.88;;;11.26;60.68
48527;BME280;34317;51.660;5.824;2023-03-26T06:38:15;100188.22;;;11.26;60.78
48527;BME280;34317;51.660;5.824;2023-03-26T06:40:43;100185.56;;;11.26;60.67
48527;BME280;34317;51.660;5.824;2023-03-26T06:43:35;100187.47;;;11.24;60.72
48527;BME280;34317;51.660;5.824;2023-03-26T06:46:25;100191.84;;;11.25;60.92
48527;BME280;34317;51.660;5.824;2023-03-26T06:49:11;100185.56;;;11.26;60.94
48527;BME280;34317;51.660;5.824;2023-03-26T06:52:13;100183.69;;;11.28;60.81
48527;BME280;34317;51.660;5.824;2023-03-26T06:55:19;100183.50;;;11.31;60.79
48527;BME280;34317;51.660;5.824;2023-03-26T06:58:03;100179.94;;;11.32;60.99
48527;BME280;34317;51.660;5.824;2023-03-26T07:00:52;100183.34;;;11.34;61.08
48527;BME280;34317;51.660;5.824;2023-03-26T07:03:38;100190.34;;;11.35;60.84
48527;BME280;34317;51.660;5.824;2023-03-26T07:06:24;100184.94;;;11.37;60.76
48527;BME280;34317;51.660;5.824;2023-03-26T07:09:27;100190.16;;;11.38;60.70
48527;BME280;34317;51.660;5.824;2023-03-26T07:12:15;100190.16;;;11.38;60.78
48527;BME280;34317;51.660;5.824;2023-03-26T07:15:02;100191.84;;;11.39;61.13
48527;BME280;34317;51.660;5.824;2023-03-26T07:17:48;100193.56;;;11.40;60.88
48527;BME280;34317;51.660;5.824;2023-03-26T07:20:28;100189.97;;;11.41;61.14
48527;BME280;34317;51.660;5.824;2023-03-26T07:22:56;100189.97;;;11.41;61.14
48527;BME280;34317;51.660;5.824;2023-03-26T07:25:37;100190.94;;;11.40;61.21
48527;BME280;34317;51.660;5.824;2023-03-26T07:37:03;100186.38;;;11.42;61.42
48527;BME280;34317;51.660;5.824;2023-03-26T07:40:04;100177.50;;;11.43;61.47
48527;BME280;34317;51.660;5.824;2023-03-26T07:43:02;100177.31;;;11.46;61.29
48527;BME280;34317;51.660;5.824;2023-03-26T07:45:52;100175.41;;;11.48;61.38
48527;BME280;34317;51.660;5.824;2023-03-26T07:48:22;100172.59;;;11.52;61.47
48527;BME280;34317;51.660;5.824;2023-03-26T07:51:10;100175.06;;;11.55;61.45
48527;BME280;34317;51.660;5.824;2023-03-26T07:53:56;100169.56;;;11.58;61.34
48527;BME280;34317;51.660;5.824;2023-03-26T07:57:05;100168.72;;;11.57;61.28
48527;BME280;34317;51.660;5.824;2023-03-26T08:06:42;100164.25;;;11.58;61.22
48527;BME280;34317;51.660;5.824;2023-03-26T08:09:36;100160.66;;;11.59;61.35
48527;BME280;34317;51.660;5.824;2023-03-26T08:12:57;100165.75;;;11.62;61.44
48527;BME280;34317;51.660;5.824;2023-03-26T08:15:31;100154.97;;;11.65;61.49
48527;BME280;34317;51.660;5.824;2023-03-26T08:21:01;100158.97;;;11.72;61.54
48527;BME280;34317;51.660;5.824;2023-03-26T08:24:07;100157.09;;;11.74;61.37
48527;BME280;34317;51.660;5.824;2023-03-26T08:26:50;100150.81;;;11.75;61.68
48527;BME280;34317;51.660;5.824;2023-03-26T08:32:03;100145.31;;;11.78;61.70
48527;BME280;34317;51.660;5.824;2023-03-26T08:34:30;100153.09;;;11.81;61.55
48527;BME280;34317;51.660;5.824;2023-03-26T08:36:57;100147.50;;;11.86;61.39
48527;BME280;34317;51.660;5.824;2023-03-26T08:39:24;100149.94;;;11.91;61.64
48527;BME280;34317;51.660;5.824;2023-03-26T08:51:06;100138.63;;;12.16;61.77
48527;BME280;34317;51.660;5.824;2023-03-26T08:54:13;100139.09;;;12.22;61.80
48527;BME280;34317;51.660;5.824;2023-03-26T08:59:37;100128.84;;;12.31;61.66
48527;BME280;34317;51.660;5.824;2023-03-26T09:08:12;100129.00;;;12.42;61.70
48527;BME280;34317;51.660;5.824;2023-03-26T09:10:58;100119.88;;;12.46;61.58
48527;BME280;34317;51.660;5.824;2023-03-26T09:33:30;100117.88;;;12.77;61.77
48527;BME280;34317;51.660;5.824;2023-03-26T09:36:32;100114.09;;;12.81;61.64
48527;BME280;34317;51.660;5.824;2023-03-26T09:44:42;100114.97;;;12.94;61.53
48527;BME280;34317;51.660;5.824;2023-03-26T09:50:47;100110.31;;;12.98;61.36
48527;BME280;34317;51.660;5.824;2023-03-26T09:56:37;100112.63;;;13.02;61.36
48527;BME280;34317;51.660;5.824;2023-03-26T10:02:21;100115.19;;;13.04;61.27
48527;BME280;34317;51.660;5.824;2023-03-26T10:13:57;100115.63;;;12.98;60.89
48527;BME280;34317;51.660;5.824;2023-03-26T10:19:11;100114.75;;;12.97;61.05
48527;BME280;34317;51.660;5.824;2023-03-26T10:30:27;100118.69;;;13.04;60.73
48527;BME280;34317;51.660;5.824;2023-03-26T10:33:18;100125.59;;;13.07;60.85
48527;BME280;34317;51.660;5.824;2023-03-26T10:52:33;100122.03;;;13.21;60.58
48527;BME280;34317;51.660;5.824;2023-03-26T10:55:18;100129.03;;;13.22;60.42
48527;BME280;34317;51.660;5.824;2023-03-26T10:58:22;100130.00;;;13.21;60.09
48527;BME280;34317;51.660;5.824;2023-03-26T11:01:02;100125.63;;;13.20;60.00
48527;BME280;34317;51.660;5.824;2023-03-26T11:03:45;100130.97;;;13.20;60.08
48527;BME280;34317;51.660;5.824;2023-03-26T11:14:16;100133.28;;;13.12;59.89
48527;BME280;34317;51.660;5.824;2023-03-26T11:17:07;100133.47;;;13.09;59.91
48527;BME280;34317;51.660;5.824;2023-03-26T11:22:33;100135.50;;;13.05;59.86
48527;BME280;34317;51.660;5.824;2023-03-26T11:25:18;100146.25;;;13.03;59.98
48527;BME280;34317;51.660;5.824;2023-03-26T11:33:43;100143.22;;;12.95;59.97
48527;BME280;34317;51.660;5.824;2023-03-26T11:36:17;100153.13;;;12.93;60.29
48527;BME280;34317;51.660;5.824;2023-03-26T11:38:48;100145.16;;;12.93;60.41
48527;BME280;34317;51.660;5.824;2023-03-26T11:41:23;100150.47;;;12.93;60.43
48527;BME280;34317;51.660;5.824;2023-03-26T11:44:22;100150.47;;;12.93;60.19
48527;BME280;34317;51.660;5.824;2023-03-26T11:46:55;100150.47;;;12.93;60.37
48527;BME280;34317;51.660;5.824;2023-03-26T11:49:25;100153.13;;;12.93;60.12
48527;BME280;34317;51.660;5.824;2023-03-26T11:51:53;100157.50;;;12.94;60.22
48527;BME280;34317;51.660;5.824;2023-03-26T11:54:21;100156.44;;;12.97;60.46
48527;BME280;34317;51.660;5.824;2023-03-26T11:56:53;100157.09;;;13.00;60.32
48527;BME280;34317;51.660;5.824;2023-03-26T11:59:45;100150.91;;;13.00;60.15
48527;BME280;34317;51.660;5.824;2023-03-26T12:02:25;100162.41;;;13.00;60.28
48527;BME280;34317;51.660;5.824;2023-03-26T12:05:15;100158.56;;;13.04;60.27
48527;BME280;34317;51.660;5.824;2023-03-26T12:07:55;100158.38;;;13.08;60.38
48527;BME280;34317;51.660;5.824;2023-03-26T12:10:34;100157.41;;;13.09;60.22
48527;BME280;34317;51.660;5.824;2023-03-26T12:13:32;100165.38;;;13.09;60.21
48527;BME280;34317;51.660;5.824;2023-03-26T12:16:07;100160.06;;;13.09;60.36
48527;BME280;34317;51.660;5.824;2023-03-26T12:18:36;100161.78;;;13.10;60.38
48527;BME280;34317;51.660;5.824;2023-03-26T12:21:16;100164.22;;;13.13;60.25
48527;BME280;34317;51.660;5.824;2023-03-26T12:23:53;100161.38;;;13.16;60.28
48527;BME280;34317;51.660;5.824;2023-03-26T12:26:36;100164.78;;;13.18;60.00
48527;BME280;34317;51.660;5.824;2023-03-26T12:29:10;100154.13;;;13.18;60.21
48527;BME280;34317;51.660;5.824;2023-03-26T12:32:24;100162.88;;;13.20;60.01
48527;BME280;34317;51.660;5.824;2023-03-26T12:34:44;100160.75;;;13.25;60.20
48527;BME280;34317;51.660;5.824;2023-03-26T12:37:38;100164.16;;;13.27;59.97
48527;BME280;34317;51.660;5.824;2023-03-26T12:42:59;100156.78;;;13.32;59.92
48527;BME280;34317;51.660;5.824;2023-03-26T12:45:53;100173.16;;;13.39;59.79
48527;BME280;34317;51.660;5.824;2023-03-26T12:48:41;100179.13;;;13.42;59.71
48527;BME280;34317;51.660;5.824;2023-03-26T13:05:35;100187.66;;;13.60;59.33
48527;BME280;34317;51.660;5.824;2023-03-26T13:13:59;100198.28;;;13.48;59.05
48527;BME280;34317;51.660;5.824;2023-03-26T13:19:08;100197.59;;;13.31;59.03
48527;BME280;34317;51.660;5.824;2023-03-26T13:27:06;100211.34;;;13.11;59.41
48527;BME280;34317;51.660;5.824;2023-03-26T13:32:32;100210.25;;;13.00;59.77
48527;BME280;34317;51.660;5.824;2023-03-26T13:46:54;100222.91;;;12.82;60.53
48527;BME280;34317;51.660;5.824;2023-03-26T13:49:35;100222.81;;;12.84;60.50
48527;BME280;34317;51.660;5.824;2023-03-26T13:52:11;100227.19;;;12.85;60.78
48527;BME280;34317;51.660;5.824;2023-03-26T13:54:48;100224.53;;;12.85;60.51
48527;BME280;34317;51.660;5.824;2023-03-26T13:57:31;100218.25;;;12.86;60.58
48527;BME280;34317;51.660;5.824;2023-03-26T14:00:03;100230.78;;;12.84;60.46
48527;BME280;34317;51.660;5.824;2023-03-26T14:02:39;100236.31;;;12.81;60.78
48527;BME280;34317;51.660;5.824;2023-03-26T14:05:21;100245.22;;;12.80;60.37
48527;BME280;34317;51.660;5.824;2023-03-26T14:07:54;100245.63;;;12.74;60.30
48527;BME280;34317;51.660;5.824;2023-03-26T14:10:28;100239.00;;;12.66;60.37
48527;BME280;34317;51.660;5.824;2023-03-26T14:13:16;100254.28;;;12.63;60.32
48527;BME280;34317;51.660;5.824;2023-03-26T14:15:49;100255.31;;;12.60;60.42
48527;BME280;34317;51.660;5.824;2023-03-26T14:18:40;100253.25;;;12.51;60.27
48527;BME280;34317;51.660;5.824;2023-03-26T14:30:21;100286.44;;;12.15;60.40
48527;BME280;34317;51.660;5.824;2023-03-26T14:35:51;100292.66;;;12.00;60.57
48527;BME280;34317;51.660;5.824;2023-03-26T14:47:19;100300.22;;;11.92;60.76
48527;BME280;34317;51.660;5.824;2023-03-26T14:52:24;100312.47;;;11.94;60.67
48527;BME280;34317;51.660;5.824;2023-03-26T14:54:55;100307.03;;;11.96;60.82
48527;BME280;34317;51.660;5.824;2023-03-26T14:57:46;100315.75;;;11.98;60.51
48527;BME280;34317;51.660;5.824;2023-03-26T15:07:00;100317.31;;;12.02;60.82
48527;BME280;34317;51.660;5.824;2023-03-26T15:11:52;100324.81;;;12.10;60.78
48527;BME280;34317;51.660;5.824;2023-03-26T15:15:14;100329.09;;;12.12;60.71
48527;BME280;34317;51.660;5.824;2023-03-26T15:27:12;100351.50;;;12.22;60.29
48527;BME280;34317;51.660;5.824;2023-03-26T15:35:39;100369.72;;;12.29;60.20
48527;BME280;34317;51.660;5.824;2023-03-26T15:41:15;100384.88;;;12.26;59.49
48527;BME280;34317;51.660;5.824;2023-03-26T15:52:14;100409.41;;;12.16;58.61
48527;BME280;34317;51.660;5.824;2023-03-26T15:59:57;100419.69;;;12.06;57.92
48527;BME280;34317;51.660;5.824;2023-03-26T16:03:16;100411.81;;;12.04;57.94
48527;BME280;34317;51.660;5.824;2023-03-26T16:05:58;100425.09;;;12.04;57.79
48527;BME280;34317;51.660;5.824;2023-03-26T16:08:40;100432.22;;;12.04;57.53
48527;BME280;34317;51.660;5.824;2023-03-26T16:11:13;100432.22;;;12.04;57.50
48527;BME280;34317;51.660;5.824;2023-03-26T16:14:09;100445.56;;;12.02;57.56
48527;BME280;34317;51.660;5.824;2023-03-26T16:16:55;100445.56;;;12.02;57.31
48527;BME280;34317;51.660;5.824;2023-03-26T16:19:33;100455.22;;;12.03;57.17
48527;BME280;34317;51.660;5.824;2023-03-26T16:22:11;100462.34;;;12.03;57.22
48527;BME280;34317;51.660;5.824;2023-03-26T16:24:45;100468.50;;;12.03;57.00
48527;BME280;34317;51.660;5.824;2023-03-26T16:32:35;100482.19;;;11.96;56.30
48527;BME280;34317;51.660;5.824;2023-03-26T16:38:03;100488.88;;;11.87;54.83
48527;BME280;34317;51.660;5.824;2023-03-26T16:40:33;100497.06;;;11.82;55.02
48527;BME280;34317;51.660;5.824;2023-03-26T16:48:28;100518.03;;;11.71;54.98
48527;BME280;34317;51.660;5.824;2023-03-26T16:51:32;100529.59;;;11.70;55.56
48527;BME280;34317;51.660;5.824;2023-03-26T16:54:24;100528.06;;;11.66;54.96
48527;BME280;34317;51.660;5.824;2023-03-26T16:57:18;100542.41;;;11.62;55.32
48527;BME280;34317;51.660;5.824;2023-03-26T17:00:03;100535.56;;;11.58;54.55
48527;BME280;34317;51.660;5.824;2023-03-26T17:02:48;100560.69;;;11.50;53.65
48527;BME280;34317;51.660;5.824;2023-03-26T17:05:34;100566.34;;;11.44;53.54
48527;BME280;34317;51.660;5.824;2023-03-26T17:17:02;100589.47;;;11.25;53.54
48527;BME280;34317;51.660;5.824;2023-03-26T17:25:02;100612.06;;;11.15;53.46
48527;BME280;34317;51.660;5.824;2023-03-26T17:33:50;100643.56;;;11.03;52.88
48527;BME280;34317;51.660;5.824;2023-03-26T17:36:29;100648.25;;;10.98;52.56
48527;BME280;34317;51.660;5.824;2023-03-26T17:39:18;100641.38;;;10.94;51.83
48527;BME280;34317;51.660;5.824;2023-03-26T17:41:51;100653.84;;;10.92;52.30
48527;BME280;34317;51.660;5.824;2023-03-26T17:44:40;100674.31;;;10.88;52.39
48527;BME280;34317;51.660;5.824;2023-03-26T17:49:51;100677.22;;;10.84;51.73
48527;BME280;34317;51.660;5.824;2023-03-26T17:52:48;100682.81;;;10.78;51.35
48527;BME280;34317;51.660;5.824;2023-03-26T17:55:26;100686.38;;;10.77;51.05
48527;BME280;34317;51.660;5.824;2023-03-26T17:57:59;100686.53;;;10.74;51.24
48527;BME280;34317;51.660;5.824;2023-03-26T18:00:33;100691.91;;;10.72;51.23
48527;BME280;34317;51.660;5.824;2023-03-26T18:03:06;100698.97;;;10.71;51.50
48527;BME280;34317;51.660;5.824;2023-03-26T18:05:37;100710.53;;;10.70;51.11
48527;BME280;34317;51.660;5.824;2023-03-26T18:11:16;100722.03;;;10.69;51.20
48527;BME280;34317;51.660;5.824;2023-03-26T18:16:44;100734.50;;;10.67;51.31
48527;BME280;34317;51.660;5.824;2023-03-26T18:19:19;100743.41;;;10.66;51.03
48527;BME280;34317;51.660;5.824;2023-03-26T18:21:50;100746.97;;;10.65;51.19
48527;BME280;34317;51.660;5.824;2023-03-26T18:24:25;100745.25;;;10.64;50.89
48527;BME280;34317;51.660;5.824;2023-03-26T18:29:56;100761.47;;;10.57;50.42
48527;BME280;34317;51.660;5.824;2023-03-26T18:32:30;100765.31;;;10.51;50.00
48527;BME280;34317;51.660;5.824;2023-03-26T18:35:12;100772.44;;;10.49;49.66
48527;BME280;34317;51.660;5.824;2023-03-26T18:37:41;100775.22;;;10.46;50.04
48527;BME280;34317;51.660;5.824;2023-03-26T18:40:20;100776.31;;;10.42;49.63
48527;BME280;34317;51.660;5.824;2023-03-26T18:42:50;100788.75;;;10.40;49.65
48527;BME280;34317;51.660;5.824;2023-03-26T18:45:36;100796.75;;;10.38;50.03